createdAt,value
2022-11-10T00:01:27.940Z,2.58
2022-11-10T00:03:29.582Z,1.95
2022-11-10T00:05:32.064Z,2.40
2022-11-10T00:07:33.722Z,3.58
2022-11-10T00:09:35.445Z,1.33
2022-11-10T00:11:37.094Z,2.25
2022-11-10T00:13:57.633Z,1.38
2022-11-10T00:16:19.468Z,1.90
2022-11-10T00:18:21.068Z,2.05
2022-11-10T00:20:22.913Z,2.28
2022-11-10T00:22:26.170Z,1.92
2022-11-10T00:24:29.210Z,1.50
2022-11-10T00:26:30.852Z,2.60
2022-11-10T00:28:32.590Z,1.80
2022-11-10T00:30:34.206Z,1.63
2022-11-10T00:32:35.915Z,1.98
2022-11-10T00:34:37.645Z,1.90
2022-11-10T00:36:39.787Z,1.20
2022-11-10T00:38:41.414Z,2.17
2022-11-10T00:40:43.138Z,2.63
2022-11-10T00:42:44.946Z,2.10
2022-11-10T00:44:46.864Z,1.73
2022-11-10T00:46:48.550Z,1.88
2022-11-10T00:48:50.190Z,1.70
2022-11-10T00:50:52.182Z,1.60
2022-11-10T00:52:53.935Z,2.05
2022-11-10T00:54:55.575Z,1.95
2022-11-10T00:56:57.288Z,2.35
2022-11-10T00:58:58.993Z,1.50
2022-11-10T01:01:02.483Z,1.95
2022-11-10T01:03:04.280Z,2.05
2022-11-10T01:05:06.362Z,2.58
2022-11-10T01:07:07.997Z,2.28
2022-11-10T01:09:09.790Z,2.50
2022-11-10T01:11:23.865Z,2.33
2022-11-10T01:13:25.543Z,2.50
2022-11-10T01:15:28.217Z,1.92
2022-11-10T01:17:30.497Z,2.08
2022-11-10T01:19:32.209Z,3.05
2022-11-10T01:21:33.887Z,2.45
2022-11-10T01:23:38.215Z,2.13
2022-11-10T01:25:39.853Z,3.40
2022-11-10T01:27:41.493Z,2.63
2022-11-10T01:29:43.137Z,2.47
2022-11-10T01:31:44.923Z,2.50
2022-11-10T01:33:46.823Z,2.75
2022-11-10T01:35:48.500Z,2.30
2022-11-10T01:37:52.524Z,3.00
2022-11-10T01:39:54.358Z,1.80
2022-11-10T01:41:56.043Z,2.55
2022-11-10T01:44:16.637Z,2.92
2022-11-10T01:46:18.296Z,2.20
2022-11-10T01:48:51.869Z,2.50
2022-11-10T01:50:53.792Z,2.38
2022-11-10T01:52:58.263Z,2.47
2022-11-10T01:54:59.919Z,3.05
2022-11-10T01:57:05.381Z,2.40
2022-11-10T01:59:10.924Z,2.63
2022-11-10T02:01:12.655Z,2.85
2022-11-10T02:03:15.724Z,2.83
2022-11-10T02:05:17.589Z,3.10
2022-11-10T02:07:19.763Z,2.28
2022-11-10T02:09:21.570Z,1.85
2022-11-10T02:11:23.527Z,2.58
2022-11-10T02:13:25.783Z,3.10
2022-11-10T02:15:27.561Z,3.03
2022-11-10T02:17:29.448Z,2.42
2022-11-10T02:19:31.209Z,2.47
2022-11-10T02:21:32.865Z,3.08
2022-11-10T02:23:37.225Z,3.17
2022-11-10T02:25:38.924Z,3.42
2022-11-10T02:27:40.599Z,4.13
2022-11-10T02:29:42.285Z,3.60
2022-11-10T02:31:43.959Z,3.38
2022-11-10T02:33:45.675Z,2.53
2022-11-10T02:35:47.771Z,3.25
2022-11-10T02:37:49.462Z,2.97
2022-11-10T02:39:51.141Z,3.63
2022-11-10T02:41:52.804Z,3.55
2022-11-10T02:43:54.944Z,4.28
2022-11-10T02:45:56.610Z,3.17
2022-11-10T02:47:58.341Z,4.45
2022-11-10T02:49:59.989Z,4.38
2022-11-10T02:52:01.678Z,2.83
2022-11-10T02:54:03.379Z,3.05
2022-11-10T02:56:05.842Z,4.47
2022-11-10T02:58:07.537Z,3.50
2022-11-10T03:00:12.606Z,3.63
2022-11-10T03:02:14.546Z,3.85
2022-11-10T03:04:16.198Z,3.65
2022-11-10T03:06:17.868Z,3.30
2022-11-10T03:08:19.595Z,3.40
2022-11-10T03:10:24.265Z,3.63
2022-11-10T03:12:25.987Z,3.78
2022-11-10T03:14:27.643Z,4.18
2022-11-10T03:16:29.797Z,4.10
2022-11-10T03:18:31.456Z,3.40
2022-11-10T03:20:33.385Z,3.58
2022-11-10T03:22:35.213Z,4.20
2022-11-10T03:24:36.884Z,3.92
2022-11-10T03:26:38.675Z,4.72
2022-11-10T03:28:40.380Z,5.05
2022-11-10T03:30:42.891Z,3.58
2022-11-10T03:32:44.705Z,4.00
2022-11-10T03:34:46.350Z,3.28
2022-11-10T03:36:48.015Z,4.53
2022-11-10T03:38:49.719Z,5.10
2022-11-10T03:41:17.652Z,3.80
2022-11-10T03:43:13.094Z,3.63
2022-11-10T03:45:15.844Z,4.32
2022-11-10T03:47:17.735Z,3.75
2022-11-10T03:49:19.440Z,4.20
2022-11-10T03:51:21.984Z,3.53
2022-11-10T03:53:24.160Z,4.00
2022-11-10T03:55:25.961Z,4.43
2022-11-10T03:57:27.627Z,4.30
2022-11-10T03:59:30.283Z,4.10
2022-11-10T04:01:31.936Z,3.25
2022-11-10T04:03:33.703Z,4.18
2022-11-10T04:05:53.788Z,4.28
2022-11-10T04:08:18.274Z,3.00
2022-11-10T04:10:19.858Z,3.83
2022-11-10T04:12:40.198Z,4.28
2022-11-10T04:15:00.432Z,3.80
2022-11-10T04:17:02.526Z,4.85
2022-11-10T04:19:04.371Z,4.30
2022-11-10T04:21:06.699Z,4.40
2022-11-10T04:23:26.931Z,3.83
2022-11-10T04:25:28.642Z,4.47
2022-11-10T04:27:30.249Z,4.32
2022-11-10T04:29:31.887Z,5.43
2022-11-10T04:31:35.732Z,5.25
2022-11-10T04:33:38.165Z,5.28
2022-11-10T04:35:39.842Z,5.18
2022-11-10T04:37:41.618Z,5.15
2022-11-10T04:39:43.321Z,5.32
2022-11-10T04:41:45.161Z,4.75
2022-11-10T04:43:46.909Z,4.07
2022-11-10T04:45:48.903Z,5.28
2022-11-10T04:47:50.648Z,4.40
2022-11-10T04:49:52.332Z,4.78
2022-11-10T04:51:53.985Z,3.97
2022-11-10T04:53:56.151Z,4.60
2022-11-10T04:55:57.813Z,4.45
2022-11-10T04:57:59.511Z,5.18
2022-11-10T05:00:01.249Z,5.45
2022-11-10T05:02:02.949Z,4.25
2022-11-10T05:04:05.709Z,4.43
2022-11-10T05:06:07.907Z,4.38
2022-11-10T05:08:09.814Z,6.03
2022-11-10T05:10:11.507Z,4.90
2022-11-10T05:12:14.053Z,4.45
2022-11-10T05:14:18.070Z,4.65
2022-11-10T05:16:19.801Z,5.20
2022-11-10T05:18:21.515Z,4.70
2022-11-10T05:20:24.997Z,3.35
2022-11-10T05:22:26.750Z,4.10
2022-11-10T05:24:28.675Z,4.70
2022-11-10T05:26:30.429Z,5.40
2022-11-10T05:28:32.244Z,4.32
2022-11-10T05:30:33.950Z,4.38
2022-11-10T05:32:36.733Z,4.03
2022-11-10T05:34:38.414Z,4.45
2022-11-10T05:36:40.061Z,3.55
2022-11-10T05:38:43.675Z,4.82
2022-11-10T05:40:45.692Z,4.32
2022-11-10T05:42:49.085Z,3.70
2022-11-10T05:44:50.863Z,3.92
2022-11-10T05:46:52.491Z,4.15
2022-11-10T05:48:54.228Z,4.22
2022-11-10T05:50:55.970Z,2.65
2022-11-10T05:52:57.589Z,4.80
2022-11-10T05:55:08.768Z,3.50
2022-11-10T05:57:10.472Z,3.10
2022-11-10T05:59:41.182Z,3.72
2022-11-10T06:01:42.868Z,3.35
2022-11-10T06:04:06.749Z,3.75
2022-11-10T06:06:08.800Z,4.00
2022-11-10T06:08:15.909Z,3.70
2022-11-10T06:10:19.468Z,3.45
2022-11-10T06:12:35.638Z,3.90
2022-11-10T06:15:04.081Z,3.42
2022-11-10T06:17:05.812Z,3.42
2022-11-10T06:19:15.021Z,3.33
2022-11-10T06:21:16.690Z,3.05
2022-11-10T06:23:18.616Z,4.00
2022-11-10T06:25:20.541Z,3.80
2022-11-10T06:27:22.364Z,3.95
2022-11-10T06:29:26.903Z,3.92
2022-11-10T06:31:29.777Z,4.10
2022-11-10T06:33:41.128Z,3.70
2022-11-10T06:35:48.775Z,3.88
2022-11-10T06:38:01.939Z,4.10
2022-11-10T06:40:04.122Z,3.47
2022-11-10T06:42:06.067Z,3.97
2022-11-10T06:44:08.312Z,3.63
2022-11-10T06:46:10.095Z,3.08
2022-11-10T06:48:14.013Z,4.05
2022-11-10T06:50:16.007Z,3.97
2022-11-10T06:52:18.118Z,3.97
2022-11-10T06:54:20.074Z,4.80
2022-11-10T06:56:22.122Z,4.60
2022-11-10T06:58:23.900Z,3.83
2022-11-10T07:00:26.793Z,4.55
2022-11-10T07:02:28.447Z,5.35
2022-11-10T07:04:30.159Z,3.60
2022-11-10T07:06:31.846Z,4.30
2022-11-10T07:08:33.587Z,4.70
2022-11-10T07:10:36.182Z,3.90
2022-11-10T07:13:01.580Z,4.18
2022-11-10T07:15:04.051Z,4.35
2022-11-10T07:17:05.890Z,4.22
2022-11-10T07:19:07.736Z,4.45
2022-11-10T07:21:24.194Z,3.88
2022-11-10T07:23:50.304Z,3.40
2022-11-10T07:25:52.202Z,3.95
2022-11-10T07:28:00.427Z,4.72
2022-11-10T07:30:02.133Z,4.25
2022-11-10T07:32:04.050Z,3.83
2022-11-10T07:34:05.754Z,5.07
2022-11-10T07:36:10.619Z,4.68
2022-11-10T07:38:14.764Z,3.00
2022-11-10T07:40:16.760Z,3.90
2022-11-10T07:42:18.431Z,3.92
2022-11-10T07:44:20.129Z,3.88
2022-11-10T07:46:21.742Z,3.88
2022-11-10T07:48:23.609Z,3.78
2022-11-10T07:50:25.308Z,3.65
2022-11-10T07:52:26.911Z,4.50
2022-11-10T07:54:28.660Z,4.43
2022-11-10T07:56:53.024Z,5.28
2022-11-10T07:59:05.252Z,4.22
2022-11-10T08:01:20.040Z,4.18
2022-11-10T08:03:23.049Z,3.75
2022-11-10T08:05:27.241Z,3.33
2022-11-10T08:07:29.091Z,3.80
2022-11-10T08:09:43.335Z,3.00
2022-11-10T08:11:48.930Z,3.53
2022-11-10T08:14:12.087Z,3.50
2022-11-10T08:16:35.195Z,3.55
2022-11-10T08:19:08.088Z,2.92
2022-11-10T08:21:09.832Z,3.25
2022-11-10T08:23:12.579Z,3.40
2022-11-10T08:25:14.332Z,2.72
2022-11-10T08:27:16.543Z,2.95
2022-11-10T08:29:30.848Z,2.60
2022-11-10T08:31:45.340Z,2.85
2022-11-10T08:33:47.153Z,2.35
2022-11-10T08:36:05.063Z,3.03
2022-11-10T08:38:19.060Z,2.53
2022-11-10T08:40:25.630Z,3.15
2022-11-10T08:42:57.733Z,2.63
2022-11-10T08:45:07.032Z,2.20
2022-11-10T08:47:08.868Z,2.58
2022-11-10T08:49:10.789Z,3.08
2022-11-10T08:51:12.507Z,2.97
2022-11-10T08:53:29.541Z,2.78
2022-11-10T08:55:51.409Z,2.63
2022-11-10T08:57:53.312Z,3.08
2022-11-10T08:59:55.076Z,3.40
2022-11-10T09:01:57.901Z,2.95
2022-11-10T09:03:59.787Z,2.20
2022-11-10T09:06:01.466Z,1.85
2022-11-10T09:08:04.447Z,2.17
2022-11-10T09:10:13.060Z,1.48
2022-11-10T09:12:14.733Z,2.60
2022-11-10T09:14:16.496Z,1.88
2022-11-10T09:16:21.628Z,2.33
2022-11-10T09:18:37.102Z,1.77
2022-11-10T09:20:44.408Z,2.65
2022-11-10T09:22:47.112Z,2.28
2022-11-10T09:24:49.329Z,3.17
2022-11-10T09:26:50.967Z,2.13
2022-11-10T09:28:53.081Z,1.48
2022-11-10T09:30:54.745Z,1.73
2022-11-10T09:32:58.056Z,2.13
2022-11-10T09:34:59.816Z,1.75
2022-11-10T09:37:01.545Z,1.70
2022-11-10T09:39:03.384Z,2.53
2022-11-10T09:41:08.706Z,3.72
2022-11-10T09:43:38.433Z,1.77
2022-11-10T09:45:43.300Z,2.38
2022-11-10T09:47:58.678Z,2.17
2022-11-10T09:50:01.661Z,2.65
2022-11-10T09:52:04.324Z,2.45
2022-11-10T09:54:06.510Z,2.38
2022-11-10T09:56:14.331Z,2.08
2022-11-10T09:58:16.704Z,2.60
2022-11-10T10:00:30.338Z,1.50
2022-11-10T10:02:52.182Z,2.90
2022-11-10T10:05:30.540Z,2.10
2022-11-10T10:07:54.016Z,4.13
2022-11-10T10:10:17.575Z,2.75
2022-11-10T10:12:41.513Z,2.08
2022-11-10T10:15:06.649Z,2.38
2022-11-10T10:17:41.432Z,3.08
2022-11-10T10:20:18.856Z,1.98
2022-11-10T10:22:26.386Z,2.05
2022-11-10T10:24:30.354Z,2.25
2022-11-10T10:26:39.856Z,1.73
2022-11-10T10:28:45.869Z,1.42
2022-11-10T10:30:47.624Z,1.35
2022-11-10T10:32:57.791Z,1.88
2022-11-10T10:34:59.399Z,1.63
2022-11-10T10:37:01.453Z,1.73
2022-11-10T10:39:07.697Z,2.33
2022-11-10T10:41:29.620Z,1.80
2022-11-10T10:43:37.600Z,1.60
2022-11-10T10:45:43.116Z,1.60
2022-11-10T10:47:45.756Z,1.63
2022-11-10T10:49:50.618Z,1.58
2022-11-10T10:52:06.452Z,1.00
2022-11-10T10:54:23.729Z,1.23
2022-11-10T10:56:28.157Z,1.60
2022-11-10T10:58:51.408Z,1.40
2022-11-10T11:01:06.176Z,1.20
2022-11-10T11:03:25.332Z,1.23
2022-11-10T11:05:27.030Z,1.27
2022-11-10T11:07:28.729Z,1.15
2022-11-10T11:09:40.198Z,1.35
2022-11-10T11:11:43.648Z,1.27
2022-11-10T11:13:45.289Z,0.93
2022-11-10T11:16:13.255Z,2.28
2022-11-10T11:18:17.449Z,1.40
2022-11-10T11:20:19.249Z,1.10
2022-11-10T11:22:32.817Z,1.40
2022-11-10T11:24:40.502Z,1.35
2022-11-10T11:26:56.396Z,1.83
2022-11-10T11:29:28.387Z,1.80
2022-11-10T11:32:09.676Z,1.15
2022-11-10T11:34:52.544Z,0.90
2022-11-10T11:37:08.505Z,1.25
2022-11-10T11:39:40.035Z,1.38
2022-11-10T11:41:46.845Z,1.55
2022-11-10T11:43:48.794Z,1.10
2022-11-10T11:46:05.618Z,1.10
2022-11-10T11:48:33.926Z,1.30
2022-11-10T11:50:50.747Z,1.48
2022-11-10T11:52:58.273Z,1.00
2022-11-10T11:55:16.428Z,1.45
2022-11-10T11:58:00.734Z,1.17
2022-11-10T12:00:27.913Z,0.90
2022-11-10T12:02:54.298Z,1.10
2022-11-10T12:05:29.851Z,1.30
2022-11-10T12:07:58.019Z,1.20
2022-11-10T12:10:18.140Z,1.13
2022-11-10T12:12:23.983Z,1.30
2022-11-10T12:15:08.009Z,1.73
2022-11-10T12:17:35.570Z,1.52
2022-11-10T12:19:47.202Z,1.08
2022-11-10T12:21:52.888Z,1.38
2022-11-10T12:23:54.537Z,1.15
2022-11-10T12:26:05.947Z,1.20
2022-11-10T12:28:35.817Z,1.10
2022-11-10T12:30:38.771Z,1.50
2022-11-10T12:32:44.359Z,1.48
2022-11-10T12:35:07.615Z,1.13
2022-11-10T12:37:30.230Z,1.30
2022-11-10T12:39:46.965Z,1.77
2022-11-10T12:42:15.932Z,1.65
2022-11-10T12:44:38.462Z,1.58
2022-11-10T12:46:41.810Z,1.00
2022-11-10T12:49:02.444Z,1.58
2022-11-10T12:51:33.547Z,1.50
2022-11-10T12:53:39.667Z,1.30
2022-11-10T12:55:56.240Z,1.40
2022-11-10T12:57:58.131Z,1.63
2022-11-10T13:00:03.711Z,1.17
2022-11-10T13:02:24.287Z,1.60
2022-11-10T13:04:26.322Z,1.95
2022-11-10T13:06:36.731Z,1.65
2022-11-10T13:08:41.222Z,1.13
2022-11-10T13:11:11.724Z,1.38
2022-11-10T13:13:15.466Z,1.55
2022-11-10T13:15:35.563Z,1.20
2022-11-10T13:17:37.230Z,1.45
2022-11-10T13:19:39.214Z,1.30
2022-11-10T13:21:53.113Z,1.20
2022-11-10T13:23:59.459Z,1.00
2022-11-10T13:26:06.048Z,1.52
2022-11-10T13:28:09.606Z,1.48
2022-11-10T13:30:11.302Z,1.20
2022-11-10T13:32:15.526Z,1.40
2022-11-10T13:34:20.039Z,1.63
2022-11-10T13:36:54.571Z,1.77
2022-11-10T13:38:56.695Z,2.38
2022-11-10T13:41:41.488Z,2.10
2022-11-10T13:44:25.597Z,1.52
2022-11-10T13:46:35.556Z,2.17
2022-11-10T13:48:53.671Z,1.75
2022-11-10T13:51:08.410Z,1.50
2022-11-10T13:53:31.605Z,2.10
2022-11-10T13:55:58.115Z,2.20
2022-11-10T13:58:02.670Z,2.20
2022-11-10T14:00:19.164Z,2.30
2022-11-10T14:02:49.113Z,1.85
2022-11-10T14:04:52.356Z,3.13
2022-11-10T14:06:55.858Z,2.28
2022-11-10T14:09:03.712Z,2.33
2022-11-10T14:11:13.296Z,2.97
2022-11-10T14:13:22.572Z,2.45
2022-11-10T14:15:39.483Z,2.15
2022-11-10T14:17:50.456Z,2.22
2022-11-10T14:19:52.197Z,2.03
2022-11-10T14:21:59.610Z,1.83
2022-11-10T14:24:27.768Z,2.00
2022-11-10T14:26:35.451Z,1.65
2022-11-10T14:28:38.128Z,2.97
2022-11-10T14:30:39.806Z,2.75
2022-11-10T14:32:41.450Z,3.22
2022-11-10T14:34:51.071Z,4.20
2022-11-10T14:36:57.503Z,1.98
2022-11-10T14:39:00.266Z,2.42
2022-11-10T14:41:06.501Z,1.38
2022-11-10T14:43:34.275Z,3.63
2022-11-10T14:45:38.700Z,3.25
2022-11-10T14:47:40.373Z,2.25
2022-11-10T14:49:42.172Z,2.00
2022-11-10T14:51:43.809Z,2.50
2022-11-10T14:53:53.359Z,2.60
2022-11-10T14:55:56.349Z,2.78
2022-11-10T14:58:24.660Z,2.72
2022-11-10T15:00:27.469Z,1.77
2022-11-10T15:02:29.409Z,2.13
2022-11-10T15:04:32.133Z,2.38
2022-11-10T15:06:34.859Z,2.38
2022-11-10T15:08:37.225Z,2.38
2022-11-10T15:10:39.497Z,2.67
2022-11-10T15:12:42.323Z,3.40
2022-11-10T15:14:45.789Z,2.50
2022-11-10T15:17:06.941Z,2.85
2022-11-10T15:19:28.048Z,3.20
2022-11-10T15:21:34.031Z,2.50
2022-11-10T15:23:42.733Z,3.13
2022-11-10T15:25:52.852Z,3.10
2022-11-10T15:28:01.989Z,2.78
2022-11-10T15:30:21.503Z,4.22
2022-11-10T15:32:27.330Z,6.10
2022-11-10T15:34:40.716Z,7.53
2022-11-10T15:36:42.483Z,6.75
2022-11-10T15:38:44.306Z,6.00
2022-11-10T15:40:48.657Z,4.47
2022-11-10T15:43:10.381Z,4.15
2022-11-10T15:45:12.103Z,5.75
2022-11-10T15:47:15.340Z,7.82
2022-11-10T15:49:19.605Z,4.55
2022-11-10T15:51:25.989Z,4.65
2022-11-10T15:53:31.831Z,4.57
2022-11-10T15:55:35.507Z,4.13
2022-11-10T15:57:37.269Z,3.47
2022-11-10T15:59:39.074Z,2.90
2022-11-10T16:01:40.961Z,2.45
2022-11-10T16:03:43.194Z,2.00
2022-11-10T16:05:45.497Z,2.47
2022-11-10T16:07:47.285Z,3.17
2022-11-10T16:09:48.924Z,2.15
2022-11-10T16:11:50.553Z,2.47
2022-11-10T16:13:52.406Z,1.60
2022-11-10T16:15:54.661Z,2.03
2022-11-10T16:17:56.348Z,2.17
2022-11-10T16:19:58.008Z,8.35
2022-11-10T16:21:59.692Z,4.38
2022-11-10T16:24:01.324Z,4.13
2022-11-10T16:26:04.277Z,3.58
2022-11-10T16:28:06.727Z,3.00
2022-11-10T16:30:15.422Z,3.05
2022-11-10T16:32:17.287Z,2.92
2022-11-10T16:34:19.029Z,3.42
2022-11-10T16:36:26.886Z,2.50
2022-11-10T16:38:29.801Z,2.92
2022-11-10T16:40:31.485Z,3.15
2022-11-10T16:42:33.261Z,3.60
2022-11-10T16:44:36.763Z,3.08
2022-11-10T16:46:42.842Z,2.90
2022-11-10T16:48:45.368Z,2.60
2022-11-10T16:50:51.352Z,3.28
2022-11-10T16:52:53.400Z,3.53
2022-11-10T16:54:55.022Z,3.50
2022-11-10T16:56:56.694Z,2.97
2022-11-10T16:58:58.317Z,3.83
2022-11-10T17:01:00.875Z,4.68
2022-11-10T17:03:05.158Z,3.42
2022-11-10T17:05:09.106Z,3.28
2022-11-10T17:07:13.721Z,3.45
2022-11-10T17:09:23.548Z,3.88
2022-11-10T17:11:25.667Z,3.75
2022-11-10T17:13:27.381Z,2.95
2022-11-10T17:15:29.154Z,4.00
2022-11-10T17:17:30.917Z,3.00
2022-11-10T17:19:32.579Z,3.15
2022-11-10T17:21:36.318Z,3.28
2022-11-10T17:23:38.146Z,4.07
2022-11-10T17:25:40.129Z,3.17
2022-11-10T17:27:41.842Z,3.38
2022-11-10T17:29:43.499Z,4.95
2022-11-10T17:31:45.551Z,4.60
2022-11-10T17:33:47.179Z,4.00
2022-11-10T17:35:50.766Z,3.65
2022-11-10T17:37:55.671Z,3.88
2022-11-10T17:39:58.087Z,3.28
2022-11-10T17:42:00.103Z,4.95
2022-11-10T17:44:01.776Z,5.82
2022-11-10T17:46:03.439Z,6.53
2022-11-10T17:48:05.590Z,7.05
2022-11-10T17:50:07.842Z,7.38
2022-11-10T17:52:17.363Z,4.70
2022-11-10T17:54:19.022Z,5.13
2022-11-10T17:56:20.811Z,5.63
2022-11-10T17:58:22.922Z,4.47
2022-11-10T18:00:25.309Z,3.67
2022-11-10T18:02:26.967Z,3.40
2022-11-10T18:04:28.717Z,6.85
2022-11-10T18:06:31.192Z,6.97
2022-11-10T18:08:32.925Z,5.05
2022-11-10T18:10:34.548Z,2.88
2022-11-10T18:12:36.355Z,3.47
2022-11-10T18:14:38.051Z,2.83
2022-11-10T18:16:39.783Z,3.42
2022-11-10T18:18:41.781Z,4.03
2022-11-10T18:20:45.328Z,3.97
2022-11-10T18:22:47.104Z,2.92
2022-11-10T18:24:48.968Z,2.97
2022-11-10T18:26:50.688Z,2.63
2022-11-10T18:28:52.523Z,2.95
2022-11-10T18:30:54.187Z,3.63
2022-11-10T18:32:55.796Z,3.50
2022-11-10T18:34:57.434Z,2.72
2022-11-10T18:36:59.110Z,5.32
2022-11-10T18:39:00.857Z,5.72
2022-11-10T18:41:23.812Z,3.80
2022-11-10T18:43:25.609Z,3.65
2022-11-10T18:45:27.796Z,2.67
2022-11-10T18:47:29.448Z,3.22
2022-11-10T18:49:31.205Z,2.42
2022-11-10T18:51:33.450Z,2.67
2022-11-10T18:53:38.296Z,2.88
2022-11-10T18:55:45.220Z,2.35
2022-11-10T18:57:47.359Z,2.83
2022-11-10T18:59:48.950Z,4.07
2022-11-10T19:01:51.013Z,3.80
2022-11-10T19:03:52.750Z,5.63
2022-11-10T19:05:58.769Z,4.75
2022-11-10T19:08:00.529Z,4.28
2022-11-10T19:10:02.153Z,2.83
2022-11-10T19:12:04.104Z,2.28
2022-11-10T19:14:05.765Z,3.92
2022-11-10T19:16:15.579Z,4.03
2022-11-10T19:18:17.219Z,3.50
2022-11-10T19:20:19.120Z,4.20
2022-11-10T19:22:20.801Z,3.13
2022-11-10T19:24:28.025Z,2.88
2022-11-10T19:26:32.830Z,3.38
2022-11-10T19:28:34.428Z,2.60
2022-11-10T19:30:36.028Z,3.15
2022-11-10T19:32:40.845Z,3.72
2022-11-10T19:34:42.484Z,3.65
2022-11-10T19:36:45.571Z,3.85
2022-11-10T19:38:47.545Z,3.85
2022-11-10T19:40:49.208Z,2.58
2022-11-10T19:42:50.938Z,2.90
2022-11-10T19:44:52.888Z,3.15
2022-11-10T19:46:54.527Z,4.18
2022-11-10T19:48:56.921Z,6.20
2022-11-10T19:51:02.604Z,4.90
2022-11-10T19:53:04.298Z,5.50
2022-11-10T19:55:06.444Z,3.40
2022-11-10T19:57:08.525Z,3.25
2022-11-10T19:59:10.281Z,3.80
2022-11-10T20:01:12.765Z,3.33
2022-11-10T20:03:15.121Z,5.07
2022-11-10T20:05:17.344Z,4.10
2022-11-10T20:07:37.649Z,3.72
2022-11-10T20:09:40.197Z,4.00
2022-11-10T20:11:41.867Z,3.67
2022-11-10T20:13:43.737Z,4.45
2022-11-10T20:15:45.663Z,4.97
2022-11-10T20:17:47.365Z,4.28
2022-11-10T20:19:49.147Z,4.30
2022-11-10T20:21:50.774Z,4.13
2022-11-10T20:23:56.320Z,3.75
2022-11-10T20:26:10.889Z,4.07
2022-11-10T20:28:14.333Z,4.93
2022-11-10T20:30:20.927Z,5.38
2022-11-10T20:32:26.433Z,4.95
2022-11-10T20:34:28.289Z,6.57
2022-11-10T20:36:31.601Z,6.15
2022-11-10T20:38:33.386Z,5.30
2022-11-10T20:40:50.191Z,5.57
2022-11-10T20:42:52.455Z,6.05
2022-11-10T20:44:54.044Z,6.82
2022-11-10T20:46:55.904Z,6.30
2022-11-10T20:48:57.564Z,4.28
2022-11-10T20:50:59.447Z,4.47
2022-11-10T20:53:01.087Z,4.28
2022-11-10T20:55:03.507Z,5.95
2022-11-10T20:57:05.142Z,3.97
2022-11-10T20:59:07.028Z,4.18
2022-11-10T21:01:14.404Z,5.07
2022-11-10T21:03:16.174Z,4.78
2022-11-10T21:05:17.894Z,5.78
2022-11-10T21:07:19.575Z,5.13
2022-11-10T21:09:21.203Z,5.07
2022-11-10T21:11:41.677Z,5.70
2022-11-10T21:13:43.312Z,4.53
2022-11-10T21:15:48.403Z,4.65
2022-11-10T21:17:50.057Z,6.28
2022-11-10T21:19:51.701Z,6.10
2022-11-10T21:21:53.953Z,5.30
2022-11-10T21:23:57.333Z,5.65
2022-11-10T21:26:00.623Z,6.05
2022-11-10T21:28:02.787Z,5.97
2022-11-10T21:30:06.825Z,5.18
2022-11-10T21:32:10.612Z,8.50
2022-11-10T21:34:12.630Z,6.22
2022-11-10T21:36:14.345Z,6.50
2022-11-10T21:38:15.964Z,7.13
2022-11-10T21:40:17.783Z,6.50
2022-11-10T21:42:21.821Z,6.00
2022-11-10T21:44:24.763Z,5.03
2022-11-10T21:46:26.498Z,6.30
2022-11-10T21:48:28.152Z,7.15
2022-11-10T21:50:29.949Z,6.35
2022-11-10T21:52:35.075Z,7.00
2022-11-10T21:54:36.696Z,7.25
2022-11-10T21:56:38.668Z,7.82
2022-11-10T21:58:40.588Z,6.97
2022-11-10T22:00:42.187Z,8.48
2022-11-10T22:02:43.898Z,7.93
2022-11-10T22:04:45.511Z,5.88
2022-11-10T22:07:05.801Z,7.15
2022-11-10T22:09:07.615Z,6.28
2022-11-10T22:11:37.026Z,6.60
2022-11-10T22:13:57.256Z,6.55
2022-11-10T22:16:17.463Z,5.95
2022-11-10T22:18:37.343Z,6.05
2022-11-10T22:20:39.072Z,5.90
2022-11-10T22:22:40.821Z,5.43
2022-11-10T22:24:42.493Z,5.93
2022-11-10T22:26:44.299Z,6.22
2022-11-10T22:28:46.146Z,6.05
2022-11-10T22:30:47.782Z,6.72
2022-11-10T22:32:49.537Z,5.93
2022-11-10T22:34:51.427Z,6.88
2022-11-10T22:36:54.736Z,6.07
2022-11-10T22:39:00.565Z,6.65
2022-11-10T22:41:23.977Z,8.25
2022-11-10T22:43:44.217Z,7.80
2022-11-10T22:45:45.997Z,7.65
2022-11-10T22:48:06.153Z,6.50
2022-11-10T22:50:08.104Z,7.65
2022-11-10T22:52:10.307Z,8.55
2022-11-10T22:54:14.650Z,7.72
2022-11-10T22:56:16.375Z,7.13
2022-11-10T22:58:18.361Z,7.88
2022-11-10T23:00:20.467Z,6.40
2022-11-10T23:02:22.091Z,6.50
2022-11-10T23:04:23.721Z,6.72
2022-11-10T23:06:26.030Z,8.00
2022-11-10T23:08:30.841Z,6.55
2022-11-10T23:10:32.500Z,7.57
2022-11-10T23:12:34.197Z,6.75
2022-11-10T23:14:35.916Z,7.60
2022-11-10T23:16:37.602Z,5.88
2022-11-10T23:18:41.065Z,6.90
2022-11-10T23:20:45.588Z,7.25
2022-11-10T23:22:47.252Z,7.38
2022-11-10T23:24:52.878Z,6.10
2022-11-10T23:26:57.674Z,7.03
2022-11-10T23:28:59.397Z,6.13
2022-11-10T23:31:11.129Z,6.57
2022-11-10T23:33:12.750Z,5.75
2022-11-10T23:35:14.403Z,6.13
2022-11-10T23:37:16.053Z,6.93
2022-11-10T23:39:19.189Z,6.97
2022-11-10T23:41:23.740Z,5.82
2022-11-10T23:43:26.337Z,5.75
2022-11-10T23:45:52.704Z,6.30
2022-11-10T23:47:49.902Z,6.65
2022-11-10T23:49:51.515Z,5.82
2022-11-10T23:51:53.151Z,5.57
2022-11-10T23:53:54.741Z,4.93
2022-11-10T23:56:00.903Z,4.82
2022-11-10T23:58:03.261Z,5.78
